Flight Track Log - Related Links

Times and Time Zones

All times are in EDT time to prevent confusion due to time zone crossing. See the SWA3321 flight status page for this flight to view local times or setup timezone preferences in your user account.

Time Position Orientation Groundspeed Altitude Reporting Facility
EDT Latitude Longitude Course Direction KTS MPH feet Rate Location/Type
Tue 04:19:51 PM 38.7000 -121.5333 130° Southeast 247 284 6,000  Level Northern TRACON
Tue 04:20:51 PM 38.6500 -121.4667 134° Southeast 284 327 9,900 3,635 Climbing Northern TRACON
Tue 04:22:08 PM 38.5908 -121.3489 123° Southeast 323 372 14,300 3,478 Climbing Oakland Center
Tue 04:23:09 PM 38.5336 -121.2386 124° Southeast 353 406 17,900 3,148 Climbing Oakland Center
Tue 04:24:10 PM 38.4639 -121.1131 125° Southeast 388 447 20,700 2,508 Climbing Oakland Center
Tue 04:25:11 PM 38.3989 -120.9914 124° Southeast 410 472 23,000 1,122 Climbing Oakland Center
Tue 04:26:13 PM 38.3339 -120.8697 124° Southeast 415 478 23,000 488 Level Oakland Center
Tue 04:27:14 PM 38.2686 -120.7497 125° Southeast 412 474 24,000 984 Climbing Oakland Center
Tue 04:28:15 PM 38.1872 -120.6381 133° Southeast 433 498 25,000 1,475 Climbing Oakland Center
Tue 04:29:16 PM 38.0914 -120.5436 142° Southeast 437 503 27,000 984 Climbing Oakland Center
Tue 04:30:17 PM 37.9803 -120.4347 142° Southeast 423 487 27,000  Level Oakland Center
Tue 04:31:18 PM 37.8861 -120.3433 143° Southeast 425 489 27,000  Level Oakland Center
Tue 04:32:19 PM 37.7919 -120.2531 143° Southeast 424 488 27,000  Level Oakland Center
Tue 04:34:18 PM 37.6172 -120.0925 144° Southeast 429 494 27,000  Level Los Center
Tue 04:35:23 PM 37.5019 -119.9772 142° Southeast 439 505 27,000  Level Oakland Center
Tue 04:36:24 PM 37.4072 -119.8858 143° Southeast 431 496 27,000  Level Oakland Center
Tue 04:37:25 PM 37.3106 -119.7933 143° Southeast 424 488 27,000  Level Oakland Center
Tue 04:38:27 PM 37.2153 -119.7025 143° Southeast 429 494 27,000  Level Oakland Center
Tue 04:39:28 PM 37.1192 -119.6131 143° Southeast 430 495 27,000  Level Oakland Center
Tue 04:40:29 PM 36.9947 -119.5983 175° South 452 520 27,000  Level Oakland Center
Tue 04:41:30 PM 36.8697 -119.5994 180° South 449 517 27,000  Level Oakland Center
Tue 04:42:31 PM 36.7444 -119.6022 181° South 452 520 27,000  Level Oakland Center
Tue 04:43:33 PM 36.5956 -119.6039 181° South 446 513 27,000  Level Oakland Center
Tue 04:44:34 PM 36.4714 -119.6047 180° South 446 513 27,000  Level Oakland Center
Tue 04:45:35 PM 36.3469 -119.6067 181° South 446 513 27,000  Level Oakland Center
Tue 04:46:36 PM 36.2214 -119.6089 181° South 450 518 27,000  Level Oakland Center
Tue 04:47:37 PM 36.0958 -119.6103 181° South 450 518 27,000  Level Oakland Center
Tue 04:48:39 PM 35.9711 -119.6161 182° South 445 512 27,000  Level Oakland Center
Tue 04:49:40 PM 35.8458 -119.6203 182° South 447 514 27,000  Level Oakland Center
Tue 04:50:41 PM 35.7197 -119.6253 182° South 451 519 27,000  Level Oakland Center
Tue 04:51:42 PM 35.5942 -119.6283 181° South 450 518 27,000  Level Oakland Center
Tue 04:52:43 PM 35.4689 -119.6333 182° South 448 516 27,000  Level Oakland Center
Tue 04:53:45 PM 35.3439 -119.6378 182° South 447 514 27,000  Level Oakland Center
Tue 04:54:46 PM 35.2253 -119.6153 171° South 440 506 27,000  Level Oakland Center
Tue 04:55:47 PM 35.1253 -119.5292 145° Southeast 436 502 27,000  Level Oakland Center
Tue 04:56:48 PM 35.0044 -119.4261 145° Southeast 440 506 27,000  Level Oakland Center
Tue 04:57:03 PM 34.9844 -119.4100 147° Southeast 440 506 27,000  Level Los Center
Tue 04:58:05 PM 34.8867 -119.3253 145° Southeast 434 499 27,000  Level Los Center
Tue 04:59:07 PM 34.7861 -119.2411 145° Southeast 436 502 27,000 -48 Level Los Center
Tue 05:00:09 PM 34.6878 -119.1564 145° Southeast 435 501 26,900 -194 Descending Los Center
Tue 05:01:11 PM 34.5839 -119.0725 146° Southeast 435 501 26,600 -629 Descending Los Center
Tue 05:02:13 PM 34.4836 -118.9889 145° Southeast 438 504 25,600 -1,258 Descending Los Center
Tue 05:03:15 PM 34.3614 -118.8892 146° Southeast 441 507 24,000 -2,049 Descending Los Center
Tue 05:04:16 PM 34.2419 -118.8397 161° South 449 517 21,400 -2,537 Descending Los Center
Tue 05:05:18 PM 34.1208 -118.7950 163° South 455 524 18,800 -2,613 Descending Los Center
Tue 05:06:20 PM 33.9875 -118.7458 163° South 452 520 16,000 -2,274 Descending Los Center
Tue 05:07:22 PM 33.8722 -118.7033 163° South 438 504 14,100 -1,016 Descending Los Center
Tue 05:08:24 PM 33.7533 -118.6606 163° South 416 479 13,900 -581 Descending Los Center
Tue 05:09:26 PM 33.6456 -118.6231 164° South 409 471 12,900 -968 Descending Los Center
Tue 05:10:28 PM 33.5497 -118.5686 155° Southeast 390 449 11,900 -1,016 Descending Los Center
Tue 05:11:30 PM 33.4806 -118.4911 137° Southeast 363 418 10,800 -1,210 Descending Los Center
Tue 05:12:32 PM 33.4886 -118.3969 84° East 309 356 9,400 -1,694 Descending Los Center
Tue 05:13:34 PM 33.5236 -118.2972 67° East 278 320 7,300 -1,694 Descending Los Center
Tue 05:14:36 PM 33.5550 -118.2175 65° Northeast 273 314 5,900 -1,113 Descending Los Center
Tue 05:15:38 PM 33.5825 -118.1397 67° East 265 305 5,000 -435 Descending Los Center
Tue 05:16:40 PM 33.6075 -118.0714 66° East 241 277 5,000  Level Los Center
Tue 05:17:42 PM 33.6361 -118.0058 62° Northeast 229 264 5,000  Level Los Center
Tue 05:18:04 PM 33.6667 -117.9833 32° Northeast 227 261 5,000 -474 Level Southern TRACON
Tue 05:18:58 PM 33.7167 -117.9500 29° Northeast 224 258 4,400 -700 Descending Southern TRACON
Tue 05:20:04 PM 33.7667 -117.9000 40° Northeast 211 243 3,600 -810 Descending Southern TRACON
Tue 05:21:04 PM 33.7667 -117.8500 90° East 168 193 2,700 -1,096 Descending Southern TRACON
Tue 05:21:59 PM 33.7333 -117.8333 157° South 133 153 1,500 -1,096 Descending Southern TRACON
Tue 05:22:59 PM 33.7000 -117.8500 203° Southwest 116 133 600 -900 Descending Southern TRACON
Tue 05:25:00 PM 33.6757 -117.8682 188° South  Level Estimated
Tue 05:32:00 PM 33.6757 -117.8682 188° South  Level Estimated

Login

Don't have an account? Register now (free) for customized features, flight alerts, and more!